sensor_id;sensor_type;location;lat;lon;timestamp;temperature;humidity
6672;DHT22;3372;48.690;12.362;2022-08-11T00:00:20;19.00;15.90
6672;DHT22;3372;48.690;12.362;2022-08-11T00:02:50;19.00;15.50
6672;DHT22;3372;48.690;12.362;2022-08-11T00:05:19;19.00;16.60
6672;DHT22;3372;48.690;12.362;2022-08-11T00:07:53;19.00;15.50
6672;DHT22;3372;48.690;12.362;2022-08-11T00:10:24;19.00;16.20
6672;DHT22;3372;48.690;12.362;2022-08-11T00:12:56;19.00;16.20
6672;DHT22;3372;48.690;12.362;2022-08-11T00:15:47;19.00;16.20
6672;DHT22;3372;48.690;12.362;2022-08-11T00:18:12;19.00;16.90
6672;DHT22;3372;48.690;12.362;2022-08-11T00:20:41;18.90;16.10
6672;DHT22;3372;48.690;12.362;2022-08-11T00:23:11;19.00;16.10
6672;DHT22;3372;48.690;12.362;2022-08-11T00:25:43;18.90;16.60
6672;DHT22;3372;48.690;12.362;2022-08-11T00:28:29;19.00;17.40
6672;DHT22;3372;48.690;12.362;2022-08-11T00:30:58;19.00;18.10
6672;DHT22;3372;48.690;12.362;2022-08-11T00:33:31;19.00;16.10
6672;DHT22;3372;48.690;12.362;2022-08-11T00:35:58;19.00;16.40
6672;DHT22;3372;48.690;12.362;2022-08-11T00:38:28;19.00;17.10
6672;DHT22;3372;48.690;12.362;2022-08-11T00:46:24;19.10;17.10
6672;DHT22;3372;48.690;12.362;2022-08-11T00:55:24;19.10;17.50
6672;DHT22;3372;48.690;12.362;2022-08-11T01:12:23;19.30;16.40
6672;DHT22;3372;48.690;12.362;2022-08-11T01:21:02;19.30;15.30
6672;DHT22;3372;48.690;12.362;2022-08-11T01:26:29;19.40;15.60
6672;DHT22;3372;48.690;12.362;2022-08-11T01:29:28;19.40;16.10
6672;DHT22;3372;48.690;12.362;2022-08-11T01:32:13;19.40;16.40
6672;DHT22;3372;48.690;12.362;2022-08-11T01:35:26;19.40;16.00
6672;DHT22;3372;48.690;12.362;2022-08-11T01:38:20;19.50;15.90
6672;DHT22;3372;48.690;12.362;2022-08-11T01:49:35;19.60;14.80
6672;DHT22;3372;48.690;12.362;2022-08-11T01:54:48;19.50;15.40
6672;DHT22;3372;48.690;12.362;2022-08-11T02:00:19;19.60;14.60
6672;DHT22;3372;48.690;12.362;2022-08-11T02:10:54;19.50;15.90
6672;DHT22;3372;48.690;12.362;2022-08-11T02:13:48;19.50;14.70
6672;DHT22;3372;48.690;12.362;2022-08-11T02:18:54;19.30;15.30
6672;DHT22;3372;48.690;12.362;2022-08-11T02:22:04;19.30;15.90
6672;DHT22;3372;48.690;12.362;2022-08-11T02:27:40;19.30;15.30
6672;DHT22;3372;48.690;12.362;2022-08-11T02:30:13;19.30;15.90
6672;DHT22;3372;48.690;12.362;2022-08-11T02:38:34;19.40;14.80
6672;DHT22;3372;48.690;12.362;2022-08-11T02:44:15;19.40;14.90
6672;DHT22;3372;48.690;12.362;2022-08-11T02:49:51;19.20;15.40
6672;DHT22;3372;48.690;12.362;2022-08-11T02:52:49;19.20;16.10
6672;DHT22;3372;48.690;12.362;2022-08-11T02:55:52;19.20;16.00
6672;DHT22;3372;48.690;12.362;2022-08-11T03:01:07;19.10;16.50
6672;DHT22;3372;48.690;12.362;2022-08-11T03:06:48;19.10;16.40
6672;DHT22;3372;48.690;12.362;2022-08-11T03:15:30;18.90;17.40
6672;DHT22;3372;48.690;12.362;2022-08-11T03:18:45;18.80;16.10
6672;DHT22;3372;48.690;12.362;2022-08-11T03:21:19;18.70;16.10
6672;DHT22;3372;48.690;12.362;2022-08-11T03:24:00;18.70;15.70
6672;DHT22;3372;48.690;12.362;2022-08-11T03:26:41;18.60;17.10
6672;DHT22;3372;48.690;12.362;2022-08-11T03:29:32;18.60;17.20
6672;DHT22;3372;48.690;12.362;2022-08-11T03:34:48;18.50;17.20
6672;DHT22;3372;48.690;12.362;2022-08-11T03:37:59;18.50;15.90
6672;DHT22;3372;48.690;12.362;2022-08-11T03:46:09;18.30;16.50
6672;DHT22;3372;48.690;12.362;2022-08-11T03:48:42;18.20;18.50
6672;DHT22;3372;48.690;12.362;2022-08-11T03:51:24;18.20;17.00
6672;DHT22;3372;48.690;12.362;2022-08-11T03:56:49;18.10;16.50
6672;DHT22;3372;48.690;12.362;2022-08-11T04:39:00;17.50;18.80
6672;DHT22;3372;48.690;12.362;2022-08-11T04:48:09;17.50;20.00
6672;DHT22;3372;48.690;12.362;2022-08-11T04:57:46;17.60;20.50
6672;DHT22;3372;48.690;12.362;2022-08-11T05:00:48;17.70;19.40
6672;DHT22;3372;48.690;12.362;2022-08-11T05:14:19;17.90;21.30
6672;DHT22;3372;48.690;12.362;2022-08-11T05:17:32;18.00;19.10
6672;DHT22;3372;48.690;12.362;2022-08-11T05:20:18;18.10;20.30
6672;DHT22;3372;48.690;12.362;2022-08-11T05:23:25;18.00;20.00
6672;DHT22;3372;48.690;12.362;2022-08-11T05:26:14;18.20;19.90
6672;DHT22;3372;48.690;12.362;2022-08-11T05:29:01;18.80;19.20
6672;DHT22;3372;48.690;12.362;2022-08-11T05:31:58;19.50;18.90
6672;DHT22;3372;48.690;12.362;2022-08-11T05:34:47;20.20;18.10
6672;DHT22;3372;48.690;12.362;2022-08-11T05:37:37;20.70;16.90
6672;DHT22;3372;48.690;12.362;2022-08-11T05:40:10;21.10;16.50
6672;DHT22;3372;48.690;12.362;2022-08-11T05:43:06;21.40;16.20
6672;DHT22;3372;48.690;12.362;2022-08-11T05:46:06;21.90;15.40
6672;DHT22;3372;48.690;12.362;2022-08-11T05:48:51;22.30;15.50
6672;DHT22;3372;48.690;12.362;2022-08-11T05:51:38;22.40;15.00
6672;DHT22;3372;48.690;12.362;2022-08-11T05:54:24;22.80;13.90
6672;DHT22;3372;48.690;12.362;2022-08-11T05:57:27;23.00;13.70
6672;DHT22;3372;48.690;12.362;2022-08-11T06:00:03;23.40;13.20
6672;DHT22;3372;48.690;12.362;2022-08-11T06:02:30;23.60;13.50
6672;DHT22;3372;48.690;12.362;2022-08-11T06:04:56;24.00;12.50
6672;DHT22;3372;48.690;12.362;2022-08-11T06:07:27;24.30;12.30
6672;DHT22;3372;48.690;12.362;2022-08-11T06:09:54;24.60;11.90
6672;DHT22;3372;48.690;12.362;2022-08-11T06:12:29;24.70;11.40
6672;DHT22;3372;48.690;12.362;2022-08-11T06:15:00;24.70;11.40
6672;DHT22;3372;48.690;12.362;2022-08-11T06:17:30;25.10;10.10
6672;DHT22;3372;48.690;12.362;2022-08-11T06:20:03;25.40;9.50
6672;DHT22;3372;48.690;12.362;2022-08-11T06:22:30;25.50;8.00
6672;DHT22;3372;48.690;12.362;2022-08-11T06:24:58;25.90;8.40
6672;DHT22;3372;48.690;12.362;2022-08-11T06:27:26;26.10;8.40
6672;DHT22;3372;48.690;12.362;2022-08-11T06:29:54;26.30;7.60
6672;DHT22;3372;48.690;12.362;2022-08-11T06:32:42;26.40;7.60
6672;DHT22;3372;48.690;12.362;2022-08-11T06:35:35;26.50;6.40
6672;DHT22;3372;48.690;12.362;2022-08-11T06:38:13;26.70;6.10
6672;DHT22;3372;48.690;12.362;2022-08-11T06:40:52;26.70;4.20
6672;DHT22;3372;48.690;12.362;2022-08-11T06:43:51;26.60;6.30
6672;DHT22;3372;48.690;12.362;2022-08-11T06:46:27;26.90;5.80
6672;DHT22;3372;48.690;12.362;2022-08-11T06:48:55;26.80;5.10
6672;DHT22;3372;48.690;12.362;2022-08-11T06:51:21;27.00;6.00
6672;DHT22;3372;48.690;12.362;2022-08-11T06:53:51;27.10;4.50
6672;DHT22;3372;48.690;12.362;2022-08-11T06:56:26;27.30;4.20
6672;DHT22;3372;48.690;12.362;2022-08-11T06:59:12;27.40;5.00
6672;DHT22;3372;48.690;12.362;2022-08-11T07:04:40;27.40;2.20
6672;DHT22;3372;48.690;12.362;2022-08-11T07:13:02;28.10;3.80
6672;DHT22;3372;48.690;12.362;2022-08-11T07:15:47;28.20;2.30
6672;DHT22;3372;48.690;12.362;2022-08-11T07:18:26;28.20;2.80
6672;DHT22;3372;48.690;12.362;2022-08-11T07:21:15;28.10;1.00
6672;DHT22;3372;48.690;12.362;2022-08-11T07:24:12;28.30;1.00
6672;DHT22;3372;48.690;12.362;2022-08-11T07:26:58;27.80;1.00
6672;DHT22;3372;48.690;12.362;2022-08-11T07:29:45;27.90;1.00
6672;DHT22;3372;48.690;12.362;2022-08-11T07:32:23;27.80;1.00
6672;DHT22;3372;48.690;12.362;2022-08-11T07:34:54;27.90;1.00
6672;DHT22;3372;48.690;12.362;2022-08-11T07:37:23;27.90;1.00
6672;DHT22;3372;48.690;12.362;2022-08-11T07:39:51;28.30;1.00
6672;DHT22;3372;48.690;12.362;2022-08-11T07:42:24;28.30;1.30
6672;DHT22;3372;48.690;12.362;2022-08-11T07:44:51;28.20;1.00
6672;DHT22;3372;48.690;12.362;2022-08-11T07:47:38;28.20;1.00
6672;DHT22;3372;48.690;12.362;2022-08-11T07:50:23;28.10;1.10
6672;DHT22;3372;48.690;12.362;2022-08-11T07:53:08;28.30;1.00
6672;DHT22;3372;48.690;12.362;2022-08-11T07:55:34;28.40;1.00
6672;DHT22;3372;48.690;12.362;2022-08-11T07:58:00;28.60;1.00
6672;DHT22;3372;48.690;12.362;2022-08-11T08:00:52;28.70;1.00
6672;DHT22;3372;48.690;12.362;2022-08-11T08:03:38;28.70;1.00
6672;DHT22;3372;48.690;12.362;2022-08-11T08:06:24;28.50;1.00
6672;DHT22;3372;48.690;12.362;2022-08-11T08:09:10;28.40;1.00
6672;DHT22;3372;48.690;12.362;2022-08-11T08:11:59;28.50;1.00
6672;DHT22;3372;48.690;12.362;2022-08-11T08:14:44;28.70;1.00
6672;DHT22;3372;48.690;12.362;2022-08-11T08:17:29;28.80;1.00
6672;DHT22;3372;48.690;12.362;2022-08-11T08:20:16;28.80;1.00
6672;DHT22;3372;48.690;12.362;2022-08-11T08:22:44;29.10;1.00
6672;DHT22;3372;48.690;12.362;2022-08-11T08:25:11;29.20;1.00
6672;DHT22;3372;48.690;12.362;2022-08-11T08:27:38;29.30;1.00
6672;DHT22;3372;48.690;12.362;2022-08-11T08:30:05;29.30;1.00
6672;DHT22;3372;48.690;12.362;2022-08-11T08:32:50;28.70;1.00
6672;DHT22;3372;48.690;12.362;2022-08-11T08:35:16;29.00;1.00
6672;DHT22;3372;48.690;12.362;2022-08-11T08:37:42;28.90;1.00
6672;DHT22;3372;48.690;12.362;2022-08-11T08:40:08;29.20;1.00
6672;DHT22;3372;48.690;12.362;2022-08-11T08:42:38;29.00;1.00
6672;DHT22;3372;48.690;12.362;2022-08-11T08:45:11;28.80;1.00
6672;DHT22;3372;48.690;12.362;2022-08-11T08:47:40;28.80;1.00
6672;DHT22;3372;48.690;12.362;2022-08-11T08:50:15;28.90;1.00
6672;DHT22;3372;48.690;12.362;2022-08-11T08:52:55;28.90;1.00
6672;DHT22;3372;48.690;12.362;2022-08-11T08:55:22;29.10;1.00
6672;DHT22;3372;48.690;12.362;2022-08-11T08:57:52;29.20;1.00
6672;DHT22;3372;48.690;12.362;2022-08-11T09:00:18;29.00;1.00
6672;DHT22;3372;48.690;12.362;2022-08-11T09:02:46;29.10;1.00
6672;DHT22;3372;48.690;12.362;2022-08-11T09:05:16;29.10;1.00
6672;DHT22;3372;48.690;12.362;2022-08-11T09:07:42;29.10;1.00
6672;DHT22;3372;48.690;12.362;2022-08-11T09:10:13;29.20;1.00
6672;DHT22;3372;48.690;12.362;2022-08-11T09:12:42;29.10;1.00
6672;DHT22;3372;48.690;12.362;2022-08-11T09:15:09;29.10;1.00
6672;DHT22;3372;48.690;12.362;2022-08-11T09:17:39;29.20;1.00
6672;DHT22;3372;48.690;12.362;2022-08-11T09:20:16;29.00;1.00
6672;DHT22;3372;48.690;12.362;2022-08-11T09:22:43;29.20;1.00
6672;DHT22;3372;48.690;12.362;2022-08-11T09:25:30;29.10;1.00
6672;DHT22;3372;48.690;12.362;2022-08-11T09:28:21;29.10;1.00
6672;DHT22;3372;48.690;12.362;2022-08-11T09:30:51;29.00;1.00
6672;DHT22;3372;48.690;12.362;2022-08-11T09:33:22;29.00;1.00
6672;DHT22;3372;48.690;12.362;2022-08-11T09:35:50;29.30;1.00
6672;DHT22;3372;48.690;12.362;2022-08-11T09:38:18;29.60;1.00
6672;DHT22;3372;48.690;12.362;2022-08-11T09:41:05;29.50;1.00
6672;DHT22;3372;48.690;12.362;2022-08-11T09:43:34;29.40;1.00
6672;DHT22;3372;48.690;12.362;2022-08-11T09:46:23;29.30;1.00
6672;DHT22;3372;48.690;12.362;2022-08-11T09:48:52;29.40;1.00
6672;DHT22;3372;48.690;12.362;2022-08-11T09:51:21;29.30;1.00
6672;DHT22;3372;48.690;12.362;2022-08-11T09:53:48;29.30;1.00
6672;DHT22;3372;48.690;12.362;2022-08-11T09:56:16;29.40;1.00
6672;DHT22;3372;48.690;12.362;2022-08-11T09:59:01;29.40;1.00
6672;DHT22;3372;48.690;12.362;2022-08-11T10:01:42;29.10;1.00
6672;DHT22;3372;48.690;12.362;2022-08-11T10:04:14;29.10;1.00
6672;DHT22;3372;48.690;12.362;2022-08-11T10:06:43;28.90;1.00
6672;DHT22;3372;48.690;12.362;2022-08-11T10:09:33;28.90;1.00
6672;DHT22;3372;48.690;12.362;2022-08-11T10:12:00;28.90;1.00
6672;DHT22;3372;48.690;12.362;2022-08-11T10:14:29;28.90;1.00
6672;DHT22;3372;48.690;12.362;2022-08-11T10:17:18;29.00;1.00
6672;DHT22;3372;48.690;12.362;2022-08-11T10:19:47;29.20;1.00
6672;DHT22;3372;48.690;12.362;2022-08-11T10:22:15;29.40;1.00
6672;DHT22;3372;48.690;12.362;2022-08-11T10:25:02;29.20;1.00
6672;DHT22;3372;48.690;12.362;2022-08-11T10:27:47;29.10;1.00
6672;DHT22;3372;48.690;12.362;2022-08-11T10:30:27;28.90;1.00
6672;DHT22;3372;48.690;12.362;2022-08-11T10:33:12;28.80;1.00
6672;DHT22;3372;48.690;12.362;2022-08-11T10:35:59;28.60;1.00
6672;DHT22;3372;48.690;12.362;2022-08-11T10:38:26;28.60;1.00
6672;DHT22;3372;48.690;12.362;2022-08-11T10:40:53;28.60;1.00
6672;DHT22;3372;48.690;12.362;2022-08-11T10:43:39;28.40;1.00
6672;DHT22;3372;48.690;12.362;2022-08-11T10:46:10;28.60;1.00
6672;DHT22;3372;48.690;12.362;2022-08-11T10:48:56;28.10;1.00
6672;DHT22;3372;48.690;12.362;2022-08-11T10:51:24;28.00;1.00
6672;DHT22;3372;48.690;12.362;2022-08-11T10:54:09;28.00;1.00
6672;DHT22;3372;48.690;12.362;2022-08-11T10:56:53;28.00;1.00
6672;DHT22;3372;48.690;12.362;2022-08-11T10:59:38;27.90;1.00
6672;DHT22;3372;48.690;12.362;2022-08-11T11:02:05;28.00;1.00
6672;DHT22;3372;48.690;12.362;2022-08-11T11:05:07;28.00;1.00
6672;DHT22;3372;48.690;12.362;2022-08-11T11:07:59;28.20;1.00
6672;DHT22;3372;48.690;12.362;2022-08-11T11:10:29;28.10;1.00
6672;DHT22;3372;48.690;12.362;2022-08-11T11:12:56;28.20;1.00
6672;DHT22;3372;48.690;12.362;2022-08-11T11:15:44;28.30;1.00
6672;DHT22;3372;48.690;12.362;2022-08-11T11:18:33;28.40;1.00
6672;DHT22;3372;48.690;12.362;2022-08-11T11:21:09;28.20;1.00
6672;DHT22;3372;48.690;12.362;2022-08-11T11:26:40;28.00;1.00
6672;DHT22;3372;48.690;12.362;2022-08-11T11:31:58;28.20;1.00
6672;DHT22;3372;48.690;12.362;2022-08-11T11:34:37;28.30;1.00
6672;DHT22;3372;48.690;12.362;2022-08-11T11:37:06;28.30;1.00
6672;DHT22;3372;48.690;12.362;2022-08-11T11:39:32;28.30;1.00
6672;DHT22;3372;48.690;12.362;2022-08-11T11:42:04;28.40;1.00
6672;DHT22;3372;48.690;12.362;2022-08-11T11:44:31;28.30;1.00
6672;DHT22;3372;48.690;12.362;2022-08-11T11:46:57;28.30;1.00
6672;DHT22;3372;48.690;12.362;2022-08-11T11:49:27;28.30;1.00
6672;DHT22;3372;48.690;12.362;2022-08-11T11:51:55;28.20;1.00
6672;DHT22;3372;48.690;12.362;2022-08-11T11:54:23;28.10;1.00
6672;DHT22;3372;48.690;12.362;2022-08-11T11:56:52;28.10;1.00
6672;DHT22;3372;48.690;12.362;2022-08-11T11:59:20;28.10;1.00
6672;DHT22;3372;48.690;12.362;2022-08-11T12:02:08;28.20;1.00
6672;DHT22;3372;48.690;12.362;2022-08-11T12:04:36;28.30;1.00
6672;DHT22;3372;48.690;12.362;2022-08-11T12:07:03;28.40;1.00
6672;DHT22;3372;48.690;12.362;2022-08-11T12:09:49;28.20;1.00
6672;DHT22;3372;48.690;12.362;2022-08-11T12:12:14;28.20;1.00
6672;DHT22;3372;48.690;12.362;2022-08-11T12:14:59;28.40;1.00
6672;DHT22;3372;48.690;12.362;2022-08-11T12:17:25;28.40;1.00
6672;DHT22;3372;48.690;12.362;2022-08-11T12:19:51;28.40;1.00
6672;DHT22;3372;48.690;12.362;2022-08-11T12:22:17;28.30;1.00
6672;DHT22;3372;48.690;12.362;2022-08-11T12:25:02;28.40;1.00
6672;DHT22;3372;48.690;12.362;2022-08-11T12:27:48;28.50;1.00
6672;DHT22;3372;48.690;12.362;2022-08-11T12:30:13;28.30;1.00
6672;DHT22;3372;48.690;12.362;2022-08-11T12:32:40;28.10;1.00
6672;DHT22;3372;48.690;12.362;2022-08-11T12:35:07;28.20;1.00
6672;DHT22;3372;48.690;12.362;2022-08-11T12:37:37;28.20;1.00
6672;DHT22;3372;48.690;12.362;2022-08-11T12:40:08;28.10;1.00
6672;DHT22;3372;48.690;12.362;2022-08-11T12:42:53;28.10;1.00
6672;DHT22;3372;48.690;12.362;2022-08-11T12:45:40;28.40;1.00
6672;DHT22;3372;48.690;12.362;2022-08-11T12:48:08;28.50;1.00
6672;DHT22;3372;48.690;12.362;2022-08-11T12:51:03;28.70;1.00
6672;DHT22;3372;48.690;12.362;2022-08-11T12:56:18;28.70;1.00
6672;DHT22;3372;48.690;12.362;2022-08-11T12:59:05;28.80;1.00
6672;DHT22;3372;48.690;12.362;2022-08-11T13:01:51;28.80;1.00
6672;DHT22;3372;48.690;12.362;2022-08-11T13:04:36;28.70;1.00
6672;DHT22;3372;48.690;12.362;2022-08-11T13:07:27;28.70;1.00
6672;DHT22;3372;48.690;12.362;2022-08-11T13:09:54;28.70;1.00
6672;DHT22;3372;48.690;12.362;2022-08-11T13:12:22;28.60;1.00
6672;DHT22;3372;48.690;12.362;2022-08-11T13:15:10;28.60;1.00
6672;DHT22;3372;48.690;12.362;2022-08-11T13:17:38;28.50;1.00
6672;DHT22;3372;48.690;12.362;2022-08-11T13:20:08;28.50;1.00
6672;DHT22;3372;48.690;12.362;2022-08-11T13:22:35;28.40;1.00
6672;DHT22;3372;48.690;12.362;2022-08-11T13:25:03;28.40;1.00
6672;DHT22;3372;48.690;12.362;2022-08-11T13:27:30;28.40;1.00
6672;DHT22;3372;48.690;12.362;2022-08-11T13:29:56;28.20;1.00
6672;DHT22;3372;48.690;12.362;2022-08-11T13:32:43;28.40;1.00
6672;DHT22;3372;48.690;12.362;2022-08-11T13:35:14;28.40;1.00
6672;DHT22;3372;48.690;12.362;2022-08-11T13:37:41;28.40;1.00
6672;DHT22;3372;48.690;12.362;2022-08-11T13:40:10;28.40;1.00
6672;DHT22;3372;48.690;12.362;2022-08-11T13:42:37;28.50;1.00
6672;DHT22;3372;48.690;12.362;2022-08-11T13:45:05;28.60;1.00
6672;DHT22;3372;48.690;12.362;2022-08-11T13:47:33;28.70;1.00
6672;DHT22;3372;48.690;12.362;2022-08-11T13:49:59;28.70;1.00
6672;DHT22;3372;48.690;12.362;2022-08-11T13:52:25;28.70;1.00
6672;DHT22;3372;48.690;12.362;2022-08-11T13:54:52;28.70;1.00
6672;DHT22;3372;48.690;12.362;2022-08-11T13:57:19;28.70;1.00
6672;DHT22;3372;48.690;12.362;2022-08-11T13:59:46;28.70;1.00
6672;DHT22;3372;48.690;12.362;2022-08-11T14:02:17;28.70;1.00
6672;DHT22;3372;48.690;12.362;2022-08-11T14:04:49;28.90;1.00
6672;DHT22;3372;48.690;12.362;2022-08-11T14:07:20;29.10;1.00
6672;DHT22;3372;48.690;12.362;2022-08-11T14:09:57;28.90;1.00
6672;DHT22;3372;48.690;12.362;2022-08-11T14:12:29;28.70;1.00
6672;DHT22;3372;48.690;12.362;2022-08-11T14:15:26;28.70;1.00
6672;DHT22;3372;48.690;12.362;2022-08-11T14:18:20;28.70;1.00
6672;DHT22;3372;48.690;12.362;2022-08-11T14:20:49;28.60;1.00
6672;DHT22;3372;48.690;12.362;2022-08-11T14:23:39;28.70;1.00
6672;DHT22;3372;48.690;12.362;2022-08-11T14:26:06;28.60;1.00
6672;DHT22;3372;48.690;12.362;2022-08-11T14:28:50;28.70;1.00
6672;DHT22;3372;48.690;12.362;2022-08-11T14:31:21;28.80;1.00
6672;DHT22;3372;48.690;12.362;2022-08-11T14:33:47;28.90;1.00
6672;DHT22;3372;48.690;12.362;2022-08-11T14:36:14;28.80;1.00
6672;DHT22;3372;48.690;12.362;2022-08-11T14:38:41;28.60;1.00
6672;DHT22;3372;48.690;12.362;2022-08-11T14:41:07;28.70;1.00
6672;DHT22;3372;48.690;12.362;2022-08-11T14:43:54;28.70;1.00
6672;DHT22;3372;48.690;12.362;2022-08-11T14:46:40;28.70;1.00
6672;DHT22;3372;48.690;12.362;2022-08-11T14:49:27;28.60;1.00
6672;DHT22;3372;48.690;12.362;2022-08-11T14:51:53;28.70;1.00
6672;DHT22;3372;48.690;12.362;2022-08-11T14:54:29;28.70;1.00
6672;DHT22;3372;48.690;12.362;2022-08-11T14:57:15;28.90;1.00
6672;DHT22;3372;48.690;12.362;2022-08-11T14:59:42;28.70;1.00
6672;DHT22;3372;48.690;12.362;2022-08-11T15:02:10;28.50;1.00
6672;DHT22;3372;48.690;12.362;2022-08-11T15:04:57;28.50;1.00
6672;DHT22;3372;48.690;12.362;2022-08-11T15:07:22;28.70;1.00
6672;DHT22;3372;48.690;12.362;2022-08-11T15:09:58;28.70;1.00
6672;DHT22;3372;48.690;12.362;2022-08-11T15:12:24;28.80;1.00
6672;DHT22;3372;48.690;12.362;2022-08-11T15:14:51;28.70;1.00
6672;DHT22;3372;48.690;12.362;2022-08-11T15:17:35;28.70;1.00
6672;DHT22;3372;48.690;12.362;2022-08-11T15:20:06;28.60;1.00
6672;DHT22;3372;48.690;12.362;2022-08-11T15:22:52;28.70;1.00
6672;DHT22;3372;48.690;12.362;2022-08-11T15:25:36;28.60;1.00
6672;DHT22;3372;48.690;12.362;2022-08-11T15:28:04;28.60;1.00
6672;DHT22;3372;48.690;12.362;2022-08-11T15:30:53;28.80;1.00
6672;DHT22;3372;48.690;12.362;2022-08-11T15:33:39;28.80;1.00
6672;DHT22;3372;48.690;12.362;2022-08-11T15:36:28;28.80;1.00
6672;DHT22;3372;48.690;12.362;2022-08-11T15:39:26;28.80;1.00
6672;DHT22;3372;48.690;12.362;2022-08-11T15:42:14;28.80;1.00
6672;DHT22;3372;48.690;12.362;2022-08-11T15:45:03;28.60;1.00
6672;DHT22;3372;48.690;12.362;2022-08-11T15:48:05;28.70;1.00
6672;DHT22;3372;48.690;12.362;2022-08-11T15:50:33;28.50;1.00
6672;DHT22;3372;48.690;12.362;2022-08-11T15:53:09;28.40;1.00
6672;DHT22;3372;48.690;12.362;2022-08-11T15:55:36;28.60;1.00
6672;DHT22;3372;48.690;12.362;2022-08-11T15:58:07;28.60;1.00
6672;DHT22;3372;48.690;12.362;2022-08-11T16:00:53;28.60;1.00
6672;DHT22;3372;48.690;12.362;2022-08-11T16:03:48;28.40;1.00
6672;DHT22;3372;48.690;12.362;2022-08-11T16:06:39;28.20;1.00
6672;DHT22;3372;48.690;12.362;2022-08-11T16:09:06;28.10;1.00
6672;DHT22;3372;48.690;12.362;2022-08-11T16:11:33;28.10;1.00
6672;DHT22;3372;48.690;12.362;2022-08-11T16:14:02;28.20;1.00
6672;DHT22;3372;48.690;12.362;2022-08-11T16:16:49;28.10;1.00
6672;DHT22;3372;48.690;12.362;2022-08-11T16:19:17;28.00;1.00
6672;DHT22;3372;48.690;12.362;2022-08-11T16:21:44;27.90;1.00
6672;DHT22;3372;48.690;12.362;2022-08-11T16:24:17;27.90;1.00
6672;DHT22;3372;48.690;12.362;2022-08-11T16:26:44;27.80;1.00
6672;DHT22;3372;48.690;12.362;2022-08-11T16:29:11;27.80;1.00
6672;DHT22;3372;48.690;12.362;2022-08-11T16:31:38;27.90;1.00
6672;DHT22;3372;48.690;12.362;2022-08-11T16:34:05;27.90;1.00
6672;DHT22;3372;48.690;12.362;2022-08-11T16:36:53;27.90;1.00
6672;DHT22;3372;48.690;12.362;2022-08-11T16:39:38;28.00;1.00
6672;DHT22;3372;48.690;12.362;2022-08-11T16:42:05;28.00;1.00
6672;DHT22;3372;48.690;12.362;2022-08-11T16:45:04;27.90;1.00
6672;DHT22;3372;48.690;12.362;2022-08-11T16:47:49;27.80;1.00
6672;DHT22;3372;48.690;12.362;2022-08-11T16:50:16;27.90;1.00
6672;DHT22;3372;48.690;12.362;2022-08-11T16:52:42;27.90;1.00
6672;DHT22;3372;48.690;12.362;2022-08-11T16:55:08;27.80;1.00
6672;DHT22;3372;48.690;12.362;2022-08-11T16:57:34;27.70;1.00
6672;DHT22;3372;48.690;12.362;2022-08-11T17:00:20;27.70;1.00
6672;DHT22;3372;48.690;12.362;2022-08-11T17:02:50;27.70;1.00
6672;DHT22;3372;48.690;12.362;2022-08-11T17:05:38;27.70;1.00
6672;DHT22;3372;48.690;12.362;2022-08-11T17:08:35;27.70;1.00
6672;DHT22;3372;48.690;12.362;2022-08-11T17:11:22;27.70;1.00
6672;DHT22;3372;48.690;12.362;2022-08-11T17:14:16;27.60;1.00
6672;DHT22;3372;48.690;12.362;2022-08-11T17:16:46;27.60;1.00
6672;DHT22;3372;48.690;12.362;2022-08-11T17:19:21;27.50;1.00
6672;DHT22;3372;48.690;12.362;2022-08-11T17:21:49;27.50;1.00
6672;DHT22;3372;48.690;12.362;2022-08-11T17:24:36;27.40;1.00
6672;DHT22;3372;48.690;12.362;2022-08-11T17:27:04;27.40;1.00
6672;DHT22;3372;48.690;12.362;2022-08-11T17:29:43;27.50;1.00
6672;DHT22;3372;48.690;12.362;2022-08-11T17:32:14;27.50;1.00
6672;DHT22;3372;48.690;12.362;2022-08-11T17:35:09;27.50;1.00
6672;DHT22;3372;48.690;12.362;2022-08-11T17:37:57;27.40;1.00
6672;DHT22;3372;48.690;12.362;2022-08-11T17:40:23;27.40;1.00
6672;DHT22;3372;48.690;12.362;2022-08-11T17:42:52;27.30;1.00
6672;DHT22;3372;48.690;12.362;2022-08-11T17:45:39;27.30;1.00
6672;DHT22;3372;48.690;12.362;2022-08-11T17:48:26;27.20;1.00
6672;DHT22;3372;48.690;12.362;2022-08-11T17:51:05;27.20;1.00
6672;DHT22;3372;48.690;12.362;2022-08-11T17:53:40;27.20;1.00
6672;DHT22;3372;48.690;12.362;2022-08-11T17:56:26;27.20;1.00
6672;DHT22;3372;48.690;12.362;2022-08-11T17:59:14;27.10;1.00
6672;DHT22;3372;48.690;12.362;2022-08-11T18:02:01;27.10;1.00
6672;DHT22;3372;48.690;12.362;2022-08-11T18:04:51;27.00;1.00
6672;DHT22;3372;48.690;12.362;2022-08-11T18:07:20;27.00;1.00
6672;DHT22;3372;48.690;12.362;2022-08-11T18:10:06;26.90;1.00
6672;DHT22;3372;48.690;12.362;2022-08-11T18:12:52;26.90;1.00
6672;DHT22;3372;48.690;12.362;2022-08-11T18:15:39;26.80;1.00
6672;DHT22;3372;48.690;12.362;2022-08-11T18:18:23;26.70;1.00
6672;DHT22;3372;48.690;12.362;2022-08-11T18:21:09;26.60;1.00
6672;DHT22;3372;48.690;12.362;2022-08-11T18:23:54;26.50;1.00
6672;DHT22;3372;48.690;12.362;2022-08-11T18:26:43;26.60;1.00
6672;DHT22;3372;48.690;12.362;2022-08-11T18:29:30;26.50;1.00
6672;DHT22;3372;48.690;12.362;2022-08-11T18:32:16;26.40;1.00
6672;DHT22;3372;48.690;12.362;2022-08-11T18:35:02;26.40;1.00
6672;DHT22;3372;48.690;12.362;2022-08-11T18:37:48;26.30;1.00
6672;DHT22;3372;48.690;12.362;2022-08-11T18:40:35;26.40;1.00
6672;DHT22;3372;48.690;12.362;2022-08-11T18:43:21;26.20;1.00
6672;DHT22;3372;48.690;12.362;2022-08-11T18:46:09;26.20;1.00
6672;DHT22;3372;48.690;12.362;2022-08-11T18:49:16;26.10;1.00
6672;DHT22;3372;48.690;12.362;2022-08-11T18:52:02;26.00;1.00
6672;DHT22;3372;48.690;12.362;2022-08-11T18:54:48;26.00;1.00
6672;DHT22;3372;48.690;12.362;2022-08-11T18:57:35;25.90;1.00
6672;DHT22;3372;48.690;12.362;2022-08-11T19:00:25;25.80;1.00
6672;DHT22;3372;48.690;12.362;2022-08-11T19:03:11;25.80;1.00
6672;DHT22;3372;48.690;12.362;2022-08-11T19:05:59;25.80;1.00
6672;DHT22;3372;48.690;12.362;2022-08-11T19:08:50;25.60;1.70
6672;DHT22;3372;48.690;12.362;2022-08-11T19:11:37;25.60;1.00
6672;DHT22;3372;48.690;12.362;2022-08-11T19:14:23;25.50;1.00
6672;DHT22;3372;48.690;12.362;2022-08-11T19:17:10;25.50;1.00
6672;DHT22;3372;48.690;12.362;2022-08-11T19:19:56;25.50;1.00
6672;DHT22;3372;48.690;12.362;2022-08-11T19:22:42;25.40;1.00
6672;DHT22;3372;48.690;12.362;2022-08-11T19:25:27;25.40;1.00
6672;DHT22;3372;48.690;12.362;2022-08-11T19:28:15;25.20;1.50
6672;DHT22;3372;48.690;12.362;2022-08-11T19:31:02;25.20;1.50
6672;DHT22;3372;48.690;12.362;2022-08-11T19:33:46;25.20;1.70
6672;DHT22;3372;48.690;12.362;2022-08-11T19:36:31;25.20;2.00
6672;DHT22;3372;48.690;12.362;2022-08-11T19:39:18;25.00;2.00
6672;DHT22;3372;48.690;12.362;2022-08-11T19:42:07;25.00;2.40
6672;DHT22;3372;48.690;12.362;2022-08-11T19:44:53;24.90;2.70
6672;DHT22;3372;48.690;12.362;2022-08-11T19:47:37;24.90;2.50
6672;DHT22;3372;48.690;12.362;2022-08-11T19:50:23;24.80;2.40
6672;DHT22;3372;48.690;12.362;2022-08-11T19:53:07;24.80;2.80
6672;DHT22;3372;48.690;12.362;2022-08-11T19:55:52;24.70;3.40
6672;DHT22;3372;48.690;12.362;2022-08-11T19:58:38;24.60;3.60
6672;DHT22;3372;48.690;12.362;2022-08-11T20:01:22;24.60;3.60
6672;DHT22;3372;48.690;12.362;2022-08-11T20:04:07;24.40;3.70
6672;DHT22;3372;48.690;12.362;2022-08-11T20:06:53;24.40;4.30